KVJI/VJI METAR and TAF weather

Enter ICAO airport designator
Station Type Date Time Source
KVJI METAR 2020/10/22 02:35 UTC NOAA

KVJI 220235Z AUTO 00000KT 10SM CLR 15/11 A3028 RMK AO2 T01450111


Station Type Date Time Source
KVJI Decoded METAR 2020/10/22 02:35 UTC NOAA

Abingdon, VA, United States (KVJI) 36-41N 082-02W
Oct 21, 2020 - 10:35 PM EDT / 2020.10.22 0235 UTC
Wind: Calm:0
Visibility: 10 mile(s):0
Sky conditions: clear
Temperature: 58.1 F (14.5 C)
Dew Point: 52.0 F (11.1 C)
Relative Humidity: 80%
Pressure (altimeter): 30.28 in. Hg (1025 hPa)
ob: KVJI 220235Z AUTO 00000KT 10SM CLR 15/11 A3028 RMK AO2 T01450111
cycle: 2

Station Type Date Time Source
KVJI TAF UTC NOAA

Error!

Example: see airport list